Terminal Aerodrome Forecast
Issued by NWS North Platte, NE

Home | Current Version | Previous Version | Text Only | Print | Product List | Glossary On
Versions: 1 2 3 4 5 6 7 8 9 10 11 12 13 14 15 16
000
FTUS43 KLBF 031100
TAFVTN
TAF
KVTN 031128Z 0312/0412 33006KT P6SM BKN150
     FM031700 36014G21KT P6SM BKN100
     FM032100 03017G24KT P6SM SCT070 BKN150
     FM040000 05012KT P6SM SCT070 BKN150
     FM040300 04006KT P6SM SCT070 OVC150=

USA.gov is the U.S. government's official web portal to all federal, state and local government web resources and services.